Time;durP1;ratioP1;P1;durP2;ratioP2;P2;SDS_P1;SDS_P2;PMS_P1;PMS_P2;Temp;Humidity;BMP_temperature;BMP_pressure;BME280_temperature;BME280_humidity;BME280_pressure;Samples;Min_cycle;Max_cycle;Signal;HPM_P1;HPM_P2
2022/05/14 00:02:13;;;;;;;4.60;4.10;;;;;;;8.54;70.02;99981.17;214117;1274;143673;-61
2022/05/14 00:07:16;;;;;;;5.30;4.60;;;;;;;8.53;69.96;99986.77;215413;1274;141923;-63
2022/05/14 00:17:41;;;;;;;4.50;2.60;;;;;;;8.31;70.41;99986.03;213812;1274;141213;-61
2022/05/14 00:22:44;;;;;;;4.80;3.70;;;;;;;8.16;70.07;99987.52;213171;1274;140593;-62
2022/05/14 00:27:46;;;;;;;5.50;5.00;;;;;;;8.06;70.46;99992.49;214057;1274;141203;-63
2022/05/14 00:32:50;;;;;;;7.50;5.10;;;;;;;8.03;70.37;99998.18;214452;1274;140715;-65
2022/05/14 00:37:53;;;;;;;7.10;5.00;;;;;;;8.00;70.79;99999.54;213179;1274;143318;-62
2022/05/14 00:42:56;;;;;;;4.10;3.80;;;;;;;7.96;70.87;100000.42;213487;1274;142383;-61
2022/05/14 00:48:01;;;;;;;6.50;4.50;;;;;;;7.96;71.08;100003.98;213876;1274;142571;-63
2022/05/14 00:53:09;;;;;;;5.00;4.60;;;;;;;7.87;70.94;100004.31;213382;1274;141740;-61
2022/05/14 00:58:29;;;;;;;3.80;3.50;;;;;;;7.74;70.95;99997.36;213274;1274;140481;-63
2022/05/14 01:03:33;;;;;;;5.30;5.00;;;;;;;7.64;71.19;99998.99;213498;1274;140886;-61
2022/05/14 01:08:36;;;;;;;5.20;4.50;;;;;;;7.54;71.55;99995.27;215251;1274;141834;-62
2022/05/14 01:13:38;;;;;;;5.20;4.80;;;;;;;7.50;71.42;99992.23;214565;1274;163240;-62
2022/05/14 01:18:42;;;;;;;5.90;5.20;;;;;;;7.57;71.97;99988.80;214523;1273;141589;-64
2022/05/14 01:29:42;;;;;;;5.60;4.40;;;;;;;7.70;71.96;99983.45;214628;1274;140710;-62
2022/05/14 01:34:44;;;;;;;4.00;3.70;;;;;;;7.59;71.56;99988.13;215942;1274;140362;-64
2022/05/14 01:39:47;;;;;;;11.20;5.20;;;;;;;7.42;71.64;99981.96;215874;1276;140051;-67
2022/05/14 01:44:50;;;;;;;4.30;4.00;;;;;;;7.30;71.69;99981.35;215146;1273;140360;-67
2022/05/14 01:49:53;;;;;;;4.40;4.10;;;;;;;7.32;71.71;99972.66;215494;1274;151895;-66
2022/05/14 01:54:55;;;;;;;4.60;4.20;;;;;;;7.35;72.04;99973.08;215844;1274;140596;-67
2022/05/14 01:59:57;;;;;;;4.50;4.10;;;;;;;7.32;72.03;99971.67;216002;1274;140031;-67
2022/05/14 02:05:00;;;;;;;7.10;4.20;;;;;;;7.25;71.97;99973.08;215745;1272;140690;-64
2022/05/14 02:10:04;;;;;;;3.80;3.40;;;;;;;7.14;72.05;99980.17;214839;1274;140288;-64
2022/05/14 02:15:08;;;;;;;7.40;4.40;;;;;;;7.12;72.38;99984.51;214220;1276;140241;-64
2022/05/14 02:20:12;;;;;;;12.10;5.80;;;;;;;7.25;73.11;99982.09;213956;1274;141229;-62
2022/05/14 02:25:19;;;;;;;6.90;6.30;;;;;;;7.43;73.73;99975.75;213706;1274;151747;-62
2022/05/14 02:30:22;;;;;;;6.50;5.70;;;;;;;7.62;73.60;99978.35;214461;1274;140605;-62
2022/05/14 02:35:26;;;;;;;8.70;7.00;;;;;;;7.85;74.37;99978.27;213494;1275;140459;-62
2022/05/14 02:40:29;;;;;;;11.20;8.10;;;;;;;8.10;74.88;99976.10;213513;1276;141009;-65
2022/05/14 02:45:32;;;;;;;10.40;7.60;;;;;;;8.33;74.47;99975.33;214278;1274;140755;-63
2022/05/14 02:50:38;;;;;;;11.00;7.90;;;;;;;8.45;74.39;99971.99;213725;1274;139462;-63
2022/05/14 02:55:41;;;;;;;10.20;8.10;;;;;;;8.60;74.39;99972.05;213726;1274;141283;-62
2022/05/14 03:00:44;;;;;;;9.50;8.50;;;;;;;8.72;74.35;99966.02;213139;1274;141841;-63
2022/05/14 03:05:48;;;;;;;11.20;9.00;;;;;;;8.84;73.94;99955.30;213160;1274;141310;-63
2022/05/14 03:10:51;;;;;;;8.80;7.20;;;;;;;8.89;74.12;99959.16;214770;1274;140832;-62
2022/05/14 03:15:54;;;;;;;16.90;8.60;;;;;;;8.95;74.10;99961.90;213590;1274;141345;-62
2022/05/14 03:20:58;;;;;;;11.20;8.00;;;;;;;9.04;73.34;99965.01;214465;1274;142402;-64
2022/05/14 03:26:02;;;;;;;11.60;8.10;;;;;;;9.14;73.35;99967.14;216044;1274;143351;-64
2022/05/14 03:31:09;;;;;;;14.10;8.30;;;;;;;9.21;73.26;99965.58;215866;1274;142000;-62
2022/05/14 03:36:12;;;;;;;16.00;8.80;;;;;;;9.29;72.73;99966.15;213146;1274;140460;-63
2022/05/14 03:41:17;;;;;;;10.00;8.40;;;;;;;9.36;72.77;99964.65;215788;1273;140226;-65
2022/05/14 03:46:20;;;;;;;8.90;6.80;;;;;;;9.46;72.35;99963.00;215747;1274;140546;-62
2022/05/14 03:51:23;;;;;;;8.10;7.00;;;;;;;9.50;72.27;99966.52;216161;1274;140790;-63
2022/05/14 03:56:25;;;;;;;8.20;5.80;;;;;;;9.58;72.21;99970.02;215647;1274;141233;-63
2022/05/14 04:01:27;;;;;;;9.90;6.40;;;;;;;9.67;72.01;99972.58;213443;1274;141728;-65
2022/05/14 04:06:31;;;;;;;9.10;6.10;;;;;;;9.76;72.13;99973.21;215056;1274;140840;-64
2022/05/14 04:11:34;;;;;;;8.50;6.40;;;;;;;9.80;71.77;99974.16;215347;1274;139956;-62
2022/05/14 04:16:38;;;;;;;8.50;6.00;;;;;;;9.87;71.88;99970.27;213632;1274;140723;-66
2022/05/14 04:21:41;;;;;;;12.80;7.60;;;;;;;9.96;71.61;99977.82;213962;1274;141039;-63
2022/05/14 04:26:45;;;;;;;12.00;6.50;;;;;;;10.01;71.72;99980.39;213133;1274;140686;-62
2022/05/14 04:31:48;;;;;;;6.10;5.50;;;;;;;10.10;71.43;99973.98;213543;1274;141581;-63
2022/05/14 04:36:51;;;;;;;8.70;5.60;;;;;;;10.18;71.52;99965.89;213238;1274;140590;-61
2022/05/14 04:41:54;;;;;;;7.80;6.10;;;;;;;10.27;71.57;99961.69;213593;1274;140526;-62
2022/05/14 04:46:59;;;;;;;6.70;5.60;;;;;;;10.38;71.54;99967.23;214099;1274;140300;-64
2022/05/14 04:52:01;;;;;;;8.40;6.10;;;;;;;10.56;71.66;99969.38;213861;1274;140217;-62
2022/05/14 04:57:05;;;;;;;6.50;5.10;;;;;;;10.71;71.34;99975.98;213086;1275;141119;-62
2022/05/14 05:07:28;;;;;;;10.30;6.00;;;;;;;10.99;70.95;99967.55;213047;1274;141806;-63
2022/05/14 05:12:31;;;;;;;6.10;4.60;;;;;;;11.79;69.82;99967.52;214478;1274;140970;-64
2022/05/14 05:17:34;;;;;;;10.50;4.80;;;;;;;15.32;66.30;99961.02;214747;1274;140855;-64
2022/05/14 05:22:37;;;;;;;17.60;4.70;;;;;;;18.94;61.60;99963.11;215439;1275;140934;-63
2022/05/14 05:27:40;;;;;;;5.50;4.50;;;;;;;18.75;60.52;99969.88;216060;1274;141668;-61
2022/05/14 05:32:42;;;;;;;4.50;3.80;;;;;;;17.52;60.48;99971.67;215468;1274;141095;-62
2022/05/14 05:37:44;;;;;;;8.90;4.60;;;;;;;16.68;60.14;99964.35;215660;1274;140443;-64
2022/05/14 05:42:46;;;;;;;7.30;4.00;;;;;;;16.42;60.28;99955.98;214688;1276;141485;-62
2022/05/14 05:47:49;;;;;;;4.10;2.90;;;;;;;16.48;59.95;99950.73;215272;1276;141381;-61
2022/05/14 05:52:52;;;;;;;3.80;3.50;;;;;;;16.26;59.81;99950.41;215765;1274;141360;-65
2022/05/14 05:57:54;;;;;;;3.40;2.90;;;;;;;17.49;58.87;99954.70;215256;1274;140858;-63
2022/05/14 06:02:59;;;;;;;5.80;3.00;;;;;;;17.85;58.27;99954.16;214441;1274;142075;-62
2022/05/14 06:08:07;;;;;;;3.10;2.90;;;;;;;17.36;57.83;99947.20;214661;1274;141602;-62
2022/05/14 06:13:09;;;;;;;5.40;3.50;;;;;;;16.81;57.63;99945.02;215659;1274;140676;-62
2022/05/14 06:18:12;;;;;;;4.00;2.70;;;;;;;16.55;58.02;99939.15;213187;1274;141809;-63
2022/05/14 06:23:14;;;;;;;4.50;2.90;;;;;;;16.92;58.00;99927.37;213171;1274;141435;-61
2022/05/14 06:28:17;;;;;;;9.10;3.60;;;;;;;17.34;57.70;99916.15;214848;1274;141520;-64
2022/05/14 06:33:19;;;;;;;5.00;3.30;;;;;;;17.69;57.22;99922.40;213323;1275;141139;-61
2022/05/14 06:38:22;;;;;;;2.40;2.30;;;;;;;18.04;57.34;99924.05;213580;1275;141926;-63
2022/05/14 06:43:27;;;;;;;3.90;2.90;;;;;;;18.06;56.61;99920.09;214322;1274;140257;-62
2022/05/14 06:48:33;;;;;;;;;;;;;;;18.16;55.87;99916.59;213019;1274;141756;-63
2022/05/14 06:53:39;;;;;;;3.90;2.20;;;;;;;18.33;55.73;99915.60;213870;1274;126282;-63
2022/05/14 06:58:48;;;;;;;6.00;3.00;;;;;;;18.84;55.29;99917.05;214495;1274;140374;-61
2022/05/14 07:09:26;;;;;;;6.20;3.30;;;;;;;20.06;52.64;99906.39;214620;1274;141137;-64
2022/05/14 07:14:30;;;;;;;2.50;2.30;;;;;;;20.91;52.00;99907.11;213147;1274;140481;-63
2022/05/14 07:19:33;;;;;;;10.50;2.80;;;;;;;20.97;51.23;99905.75;214449;1274;140716;-63
2022/05/14 07:24:37;;;;;;;4.60;3.20;;;;;;;21.34;51.02;99914.01;214028;1274;142591;-62
2022/05/14 07:29:45;;;;;;;4.80;2.90;;;;;;;21.27;49.86;99919.66;215832;1274;142423;-64
2022/05/14 07:34:48;;;;;;;5.90;3.40;;;;;;;20.89;49.56;99921.77;215809;1274;142266;-64
2022/05/14 07:40:08;;;;;;;7.30;3.80;;;;;;;20.36;49.57;99920.59;215707;1274;141415;-63
2022/05/14 07:45:15;;;;;;;3.60;2.60;;;;;;;19.72;50.00;99928.13;214817;1274;140369;-62
2022/05/14 07:50:22;;;;;;;4.90;4.10;;;;;;;19.57;50.23;99929.20;215149;1274;1245133;-64
2022/05/14 07:55:26;;;;;;;7.70;4.40;;;;;;;19.61;50.37;99929.52;215571;1274;139782;-65
2022/05/14 08:00:37;;;;;;;8.00;4.30;;;;;;;19.58;50.28;99929.99;214399;1274;139414;-66
2022/05/14 08:05:45;;;;;;;3.60;3.30;;;;;;;19.82;50.43;99924.50;214596;1274;140253;-65
2022/05/14 08:10:52;;;;;;;7.00;4.00;;;;;;;20.17;50.26;99919.61;215087;1274;140747;-64
2022/05/14 08:15:57;;;;;;;5.60;3.00;;;;;;;20.30;49.56;99917.05;214784;1274;141472;-65
2022/05/14 08:24:29;;;;;;;6.90;3.50;;;;;;;19.97;49.18;99917.20;215050;1274;143338;-66
2022/05/14 08:26:24;;;;;;;5.80;3.10;;;;;;;19.78;48.95;99920.66;213517;1274;140173;-65
2022/05/14 08:31:27;;;;;;;2.80;2.60;;;;;;;19.60;48.79;99909.67;214205;1274;140637;-65
2022/05/14 08:36:31;;;;;;;5.80;2.70;;;;;;;19.90;49.50;99904.03;213405;1274;141082;-64
2022/05/14 08:41:39;;;;;;;4.10;3.40;;;;;;;20.51;49.09;99894.63;214207;1274;140436;-65
2022/05/14 08:46:44;;;;;;;4.40;3.00;;;;;;;20.94;48.41;99890.30;213411;1274;140334;-65
2022/05/14 08:51:50;;;;;;;7.40;3.30;;;;;;;20.74;47.27;99890.71;213187;1274;140741;-64
2022/05/14 08:57:00;;;;;;;5.70;2.50;;;;;;;19.96;46.35;99895.98;214074;1274;140787;-63
2022/05/14 09:02:22;;;;;;;6.60;3.10;;;;;;;19.18;46.25;99902.53;213182;1274;140418;-64
2022/05/14 09:07:27;;;;;;;4.90;3.00;;;;;;;18.60;46.80;99911.79;214678;1274;140681;-67
2022/05/14 09:12:34;;;;;;;5.50;2.90;;;;;;;18.10;47.61;99921.13;214514;1274;141268;-63
2022/05/14 09:17:38;;;;;;;3.70;2.90;;;;;;;18.04;48.42;99922.27;213461;1274;140280;-65
2022/05/14 09:22:45;;;;;;;5.00;2.60;;;;;;;18.05;48.57;99922.33;214931;1274;140653;-64
2022/05/14 09:27:56;;;;;;;3.40;2.70;;;;;;;18.01;48.95;99922.85;213593;1274;139884;-64
2022/05/14 09:33:01;;;;;;;4.40;3.00;;;;;;;18.13;49.26;99931.71;216103;1274;140516;-63
2022/05/14 09:38:17;;;;;;;3.70;2.80;;;;;;;18.36;49.41;99932.86;216164;1274;139879;-63
2022/05/14 09:43:33;;;;;;;4.50;3.10;;;;;;;18.92;49.50;99931.55;215911;1274;141279;-63
2022/05/14 09:48:48;;;;;;;10.30;3.60;;;;;;;19.32;48.67;99931.73;215179;1273;140124;-63
2022/05/14 09:53:53;;;;;;;7.10;2.90;;;;;;;19.45;48.04;99928.71;216195;1274;141966;-64
2022/05/14 09:59:08;;;;;;;10.30;4.20;;;;;;;19.46;47.99;99930.12;215591;1274;140950;-63
2022/05/14 10:04:48;;;;;;;6.70;3.30;;;;;;;19.26;48.01;99936.28;215170;1274;141407;-63
2022/05/14 10:10:12;;;;;;;5.80;3.40;;;;;;;19.12;48.01;99942.21;214852;1274;140956;-63
2022/05/14 10:15:45;;;;;;;4.60;2.90;;;;;;;18.84;48.18;99941.84;213204;1274;140362;-65
2022/05/14 10:21:25;;;;;;;6.00;3.00;;;;;;;19.14;48.49;99935.55;213452;1276;141425;-64
2022/05/14 10:26:52;;;;;;;3.20;2.60;;;;;;;19.40;47.99;99920.29;213277;1275;142977;-65
2022/05/14 10:32:03;;;;;;;5.50;2.50;;;;;;;19.37;47.37;99928.75;213113;1275;143248;-63
2022/05/14 10:37:23;;;;;;;5.20;2.40;;;;;;;19.14;46.90;99931.50;213867;1274;140837;-64
2022/05/14 10:42:59;;;;;;;6.10;2.60;;;;;;;19.02;46.93;99918.53;214310;1274;140399;-64
2022/05/14 10:48:19;;;;;;;;;;;;;;;19.15;46.87;99910.08;213610;1274;140320;-64
2022/05/14 10:53:22;;;;;;;6.20;3.70;;;;;;;19.79;47.29;99899.70;214203;1274;126691;-65
2022/05/14 10:58:37;;;;;;;9.10;2.60;;;;;;;20.14;46.67;99891.52;214209;1274;140478;-65
2022/05/14 11:03:41;;;;;;;5.40;2.10;;;;;;;20.43;45.97;99892.66;213997;1274;139835;-64
2022/05/14 11:08:46;;;;;;;7.40;2.90;;;;;;;20.83;45.20;99887.84;214078;1274;139607;-63
2022/05/14 11:14:14;;;;;;;11.30;2.30;;;;;;;21.31;44.59;99886.10;214312;1274;140737;-64
2022/05/14 11:19:43;;;;;;;5.70;2.70;;;;;;;21.06;42.97;99894.90;213502;1274;140723;-63
2022/05/14 11:24:47;;;;;;;3.20;1.70;;;;;;;20.65;42.69;99907.50;215125;1274;141807;-64
2022/05/14 11:29:55;;;;;;;6.50;1.50;;;;;;;20.49;42.74;99909.61;214822;1274;141540;-64
2022/05/14 11:34:59;;;;;;;3.30;1.90;;;;;;;20.41;42.32;99907.41;214775;1274;140284;-63
2022/05/14 11:40:20;;;;;;;1.60;1.50;;;;;;;20.21;42.32;99907.64;215833;1274;139561;-64
2022/05/14 11:45:28;;;;;;;2.50;1.50;;;;;;;20.16;42.72;99912.06;215815;1274;140163;-64
2022/05/14 11:50:50;;;;;;;13.90;2.70;;;;;;;20.42;42.49;99913.36;215207;1274;140064;-64
2022/05/14 11:56:00;;;;;;;2.80;1.60;;;;;;;20.12;41.73;99915.14;215277;1274;140830;-63
2022/05/14 12:01:15;;;;;;;2.00;1.70;;;;;;;20.07;41.73;99914.94;215672;1274;139618;-63
2022/05/14 12:06:43;;;;;;;7.60;2.80;;;;;;;20.26;41.55;99923.10;214586;1274;141674;-63
2022/05/14 12:12:09;;;;;;;6.90;3.00;;;;;;;20.36;41.67;99928.33;214745;1274;141280;-64
2022/05/14 12:17:19;;;;;;;5.40;2.70;;;;;;;20.29;41.52;99931.50;215058;1274;139910;-64
2022/05/14 12:22:25;;;;;;;7.30;2.70;;;;;;;20.12;41.40;99931.66;214667;1274;140577;-63
2022/05/14 12:27:31;;;;;;;5.80;2.20;;;;;;;20.07;41.67;99929.45;214422;1274;139872;-63
2022/05/14 12:38:11;;;;;;;5.20;2.40;;;;;;;19.96;41.37;99932.63;213970;1274;140149;-64
2022/05/14 12:43:15;;;;;;;5.50;2.30;;;;;;;19.51;41.08;99934.48;213702;1274;139797;-64
2022/05/14 12:48:18;;;;;;;12.50;2.40;;;;;;;19.03;41.23;99940.25;213896;1274;141018;-63
2022/05/14 12:53:38;;;;;;;5.80;2.70;;;;;;;18.72;41.62;99943.17;214735;1274;140538;-65
2022/05/14 12:58:43;;;;;;;6.80;2.30;;;;;;;18.71;42.11;99939.09;213926;1274;139905;-64
2022/05/14 13:03:56;;;;;;;8.20;3.00;;;;;;;18.75;42.29;99944.14;214592;1274;139887;-64
2022/05/14 13:09:05;;;;;;;3.20;2.20;;;;;;;18.87;42.46;99946.89;213667;1274;141455;-64
2022/05/14 13:14:16;;;;;;;6.00;3.10;;;;;;;19.05;42.72;99946.06;214795;1274;140168;-64
2022/05/14 13:19:22;;;;;;;7.70;2.80;;;;;;;19.10;42.56;99941.73;213905;1274;141379;-65
2022/05/14 13:24:31;;;;;;;3.90;2.60;;;;;;;18.92;42.54;99945.34;214274;1274;140048;-64
2022/05/14 13:29:37;;;;;;;5.20;3.00;;;;;;;18.68;42.42;99949.64;215994;1274;139711;-64
2022/05/14 13:40:31;;;;;;;5.40;2.20;;;;;;;18.45;43.00;99947.58;216178;1274;141509;-64
2022/05/14 13:45:37;;;;;;;4.00;2.40;;;;;;;18.53;43.44;99945.58;215962;1274;141356;-65
2022/05/14 13:50:43;;;;;;;4.60;2.00;;;;;;;18.72;43.19;99940.42;215994;1274;141197;-64
2022/05/14 13:55:45;;;;;;;8.40;2.70;;;;;;;18.83;43.19;99939.52;215590;1274;141165;-64
2022/05/14 14:01:25;;;;;;;5.70;2.90;;;;;;;18.68;43.09;99942.61;214961;1274;140676;-63
2022/05/14 14:06:35;;;;;;;4.80;2.80;;;;;;;18.49;43.24;99948.41;213316;1274;160933;-61
2022/05/14 14:11:44;;;;;;;5.60;2.70;;;;;;;18.33;42.95;99947.19;214644;1274;140695;-63
2022/05/14 14:16:47;;;;;;;5.10;2.40;;;;;;;18.17;43.00;99948.64;213946;1274;141336;-63
2022/05/14 14:21:50;;;;;;;7.40;3.10;;;;;;;18.11;43.12;99944.67;213764;1274;140462;-63
2022/05/14 14:26:54;;;;;;;5.20;2.50;;;;;;;18.08;43.42;99946.31;214249;1274;140255;-64
2022/05/14 14:31:56;;;;;;;7.20;2.70;;;;;;;18.02;43.75;99945.60;213210;1274;142024;-64
2022/05/14 14:36:59;;;;;;;3.40;2.50;;;;;;;18.19;44.27;99945.39;213261;1274;141775;-63
2022/05/14 14:42:03;;;;;;;6.40;2.90;;;;;;;18.31;44.32;99945.42;213086;1274;142848;-64
2022/05/14 14:47:07;;;;;;;7.00;2.40;;;;;;;18.32;43.80;99944.99;214056;1274;141741;-63
2022/05/14 14:52:11;;;;;;;5.30;2.70;;;;;;;18.35;44.45;99944.89;213971;1274;141593;-63
2022/05/14 14:57:14;;;;;;;3.90;2.40;;;;;;;18.40;44.23;99946.36;214159;1275;140899;-64
2022/05/14 15:02:25;;;;;;;6.20;2.90;;;;;;;18.35;44.01;99951.38;214934;1274;140917;-64
2022/05/14 15:07:28;;;;;;;7.40;2.40;;;;;;;18.41;44.41;99952.58;213302;1274;142935;-64
2022/05/14 15:12:33;;;;;;;6.00;2.60;;;;;;;18.56;44.22;99953.34;215221;1276;141172;-64
2022/05/14 15:17:41;;;;;;;7.10;3.10;;;;;;;18.53;44.01;99951.91;214924;1274;140955;-64
2022/05/14 15:22:46;;;;;;;7.30;2.90;;;;;;;18.50;44.02;99955.00;215150;1274;141979;-64
2022/05/14 15:27:50;;;;;;;14.00;3.40;;;;;;;18.48;43.96;99954.19;214424;1274;143295;-64
2022/05/14 15:32:53;;;;;;;5.40;2.60;;;;;;;18.57;43.86;99954.36;215786;1275;141505;-65
2022/05/14 15:37:57;;;;;;;8.20;3.00;;;;;;;18.62;43.75;99951.48;215791;1274;142073;-64
2022/05/14 15:43:03;;;;;;;6.80;2.70;;;;;;;18.56;43.67;99945.30;213790;1274;141182;-64
2022/05/14 15:48:16;;;;;;;8.40;2.40;;;;;;;18.42;43.61;99947.66;215069;1274;141668;-64
2022/05/14 15:53:24;;;;;;;5.40;2.30;;;;;;;18.23;43.59;99939.70;214724;1276;139862;-64
2022/05/14 15:58:30;;;;;;;5.90;2.30;;;;;;;18.11;43.75;99937.77;214738;1274;139851;-65
2022/05/14 16:03:36;;;;;;;8.60;2.90;;;;;;;18.00;43.88;99939.89;214468;1274;140208;-64
2022/05/14 16:08:40;;;;;;;6.00;2.90;;;;;;;17.93;44.03;99932.11;213992;1274;140566;-65
2022/05/14 16:19:06;;;;;;;8.70;3.10;;;;;;;18.03;44.61;99926.83;214480;1274;140458;-64
2022/05/14 16:24:09;;;;;;;9.30;2.40;;;;;;;18.10;44.55;99927.73;213853;1274;140507;-63
2022/05/14 16:29:14;;;;;;;9.50;3.10;;;;;;;18.24;44.77;99926.04;214052;1274;141332;-64
2022/05/14 16:34:22;;;;;;;4.70;2.60;;;;;;;18.12;44.42;99924.39;214293;1274;140178;-63
2022/05/14 16:39:25;;;;;;;4.20;1.90;;;;;;;17.97;44.44;99923.20;213937;1274;141261;-64
2022/05/14 16:44:31;;;;;;;7.70;2.20;;;;;;;17.92;44.53;99924.58;213918;1274;141391;-64
2022/05/14 16:49:35;;;;;;;10.10;3.10;;;;;;;17.92;44.80;99925.48;213136;1274;140569;-64
2022/05/14 16:54:38;;;;;;;4.60;2.30;;;;;;;17.94;44.57;99922.08;213951;1274;140630;-64
2022/05/14 16:59:42;;;;;;;4.70;2.90;;;;;;;17.88;44.51;99918.70;214109;1274;140552;-62
2022/05/14 17:04:45;;;;;;;4.70;2.30;;;;;;;17.76;44.89;99913.38;215021;1272;139947;-64
2022/05/14 17:09:47;;;;;;;8.90;3.50;;;;;;;17.55;44.85;99917.05;214693;1274;141323;-64
2022/05/14 17:14:51;;;;;;;10.60;3.60;;;;;;;17.37;45.15;99923.97;214533;1274;142015;-64
2022/05/14 17:20:12;;;;;;;9.60;2.80;;;;;;;17.18;45.48;99926.45;214632;1274;143547;-64
2022/05/14 17:25:16;;;;;;;9.10;4.10;;;;;;;17.02;45.85;99929.18;215212;1274;142013;-63
2022/05/14 17:30:21;;;;;;;11.00;2.90;;;;;;;16.94;46.13;99928.81;216111;1274;141310;-63
2022/05/14 17:35:24;;;;;;;6.00;3.40;;;;;;;16.90;46.38;99928.65;213844;1274;140957;-64
2022/05/14 17:40:27;;;;;;;7.50;3.60;;;;;;;16.86;46.90;99929.80;215260;1274;141388;-64
2022/05/14 17:45:31;;;;;;;4.40;2.90;;;;;;;16.77;47.04;99931.85;215543;1274;141003;-64
2022/05/14 17:50:34;;;;;;;4.90;3.40;;;;;;;16.70;47.20;99930.08;215642;1274;141346;-65
2022/05/14 17:55:37;;;;;;;19.10;3.60;;;;;;;16.61;47.43;99932.42;215734;1274;141805;-63
2022/05/14 18:00:47;;;;;;;7.30;2.80;;;;;;;16.49;47.72;99929.63;214633;1274;141518;-64
2022/05/14 18:05:51;;;;;;;5.70;3.40;;;;;;;16.35;48.04;99928.97;214919;1274;140455;-64
2022/05/14 18:16:17;;;;;;;9.30;2.80;;;;;;;16.01;48.60;99934.55;213963;1274;140043;-63
2022/05/14 18:21:20;;;;;;;6.90;3.00;;;;;;;15.82;48.71;99941.67;213916;1275;141897;-65
2022/05/14 18:26:23;;;;;;;8.70;3.60;;;;;;;15.63;49.00;99942.81;214335;1274;139424;-65
2022/05/14 18:31:28;;;;;;;7.70;3.50;;;;;;;15.44;49.01;99947.06;213740;1274;141809;-64
2022/05/14 18:36:35;;;;;;;12.00;3.70;;;;;;;15.27;49.45;99946.54;213568;1275;141387;-63
2022/05/14 18:41:42;;;;;;;9.40;3.80;;;;;;;15.07;50.09;99944.70;213638;1274;140566;-64
2022/05/14 18:46:44;;;;;;;6.60;3.60;;;;;;;14.85;50.27;99953.20;214651;1276;139633;-63
2022/05/14 18:51:48;;;;;;;3.70;2.60;;;;;;;14.65;50.51;99955.30;213287;1276;140364;-65
2022/05/14 18:56:54;;;;;;;4.40;3.20;;;;;;;14.46;50.96;99959.53;214109;1274;139983;-65
2022/05/14 19:01:57;;;;;;;4.00;3.40;;;;;;;14.29;51.53;99958.06;214734;1274;139775;-64
2022/05/14 19:07:11;;;;;;;7.10;3.00;;;;;;;14.10;52.18;99969.88;213782;1274;140110;-65
2022/05/14 19:12:16;;;;;;;8.30;3.70;;;;;;;13.92;52.72;99970.20;215454;1274;139670;-65
2022/05/14 19:17:23;;;;;;;9.00;3.60;;;;;;;13.74;53.20;99972.63;214870;1272;139947;-65
2022/05/14 19:22:28;;;;;;;5.80;3.50;;;;;;;13.55;53.66;99976.98;215554;1274;139896;-64
2022/05/14 19:27:32;;;;;;;10.30;4.00;;;;;;;13.32;54.05;99972.67;216059;1274;140039;-64
2022/05/14 19:32:36;;;;;;;5.50;3.70;;;;;;;13.14;54.85;99976.83;216280;1274;140825;-64
2022/05/14 19:37:50;;;;;;;12.00;3.70;;;;;;;12.94;55.34;99983.32;215874;1274;140135;-63
2022/05/14 19:43:02;;;;;;;4.50;2.60;;;;;;;12.71;55.48;99981.62;214877;1274;140046;-64
2022/05/14 19:48:09;;;;;;;7.30;4.30;;;;;;;12.44;55.92;99990.98;214021;1274;1326064;-64
2022/05/14 19:53:18;;;;;;;6.90;3.40;;;;;;;12.17;56.60;99992.04;214291;1274;140158;-65
2022/05/14 19:58:21;;;;;;;8.30;3.70;;;;;;;11.99;57.07;99996.73;215203;1274;141269;-64
2022/05/14 20:03:25;;;;;;;9.10;3.80;;;;;;;11.84;57.73;99999.96;215287;1274;140495;-64
2022/05/14 20:08:29;;;;;;;5.90;3.00;;;;;;;11.68;57.94;100001.67;214464;1274;141040;-64
2022/05/14 20:13:33;;;;;;;3.80;3.10;;;;;;;11.52;58.40;100001.39;213932;1274;140622;-63
2022/05/14 20:23:59;;;;;;;8.70;4.80;;;;;;;11.10;59.33;100009.48;214094;1274;140663;-65
2022/05/14 20:29:02;;;;;;;9.00;4.20;;;;;;;10.96;59.84;100015.27;214282;1274;140682;-62
2022/05/14 20:34:06;;;;;;;11.60;3.70;;;;;;;10.75;60.18;100012.14;213662;1274;140005;-65
2022/05/14 20:39:10;;;;;;;6.20;4.10;;;;;;;10.63;60.81;100011.52;213853;1274;140847;-65
2022/05/14 20:44:14;;;;;;;4.00;3.20;;;;;;;10.49;61.15;100014.58;214324;1274;140914;-63
2022/05/14 20:49:18;;;;;;;7.70;3.50;;;;;;;10.34;61.40;100013.19;214410;1274;142006;-61
2022/05/14 20:54:21;;;;;;;7.40;3.90;;;;;;;10.14;61.39;100010.70;213777;1274;141190;-64
2022/05/14 20:59:23;;;;;;;7.30;4.60;;;;;;;9.98;61.87;100013.48;215199;1274;141527;-64
2022/05/14 21:04:29;;;;;;;8.00;4.00;;;;;;;9.84;62.28;100010.33;213452;1274;141304;-63
2022/05/14 21:09:35;;;;;;;8.90;4.40;;;;;;;9.77;62.48;100019.71;214020;1274;141238;-65
2022/05/14 21:14:38;;;;;;;15.40;5.60;;;;;;;9.67;62.99;100020.81;214788;1274;141057;-65
2022/05/14 21:19:41;;;;;;;13.10;5.30;;;;;;;9.55;62.97;100023.63;213165;1275;142899;-64
2022/05/14 21:24:45;;;;;;;6.00;4.00;;;;;;;9.49;63.50;100028.73;216107;1274;142683;-64
2022/05/14 21:29:48;;;;;;;4.10;3.30;;;;;;;9.41;63.55;100030.95;216207;1274;140906;-64
2022/05/14 21:40:17;;;;;;;6.20;3.60;;;;;;;9.39;64.25;100027.13;215450;1274;141259;-63
2022/05/14 21:45:24;;;;;;;5.30;3.90;;;;;;;9.43;64.60;100025.74;214997;1274;142331;-65
2022/05/14 21:50:28;;;;;;;9.10;4.40;;;;;;;9.44;64.41;100027.00;214658;1274;164864;-62
2022/05/14 21:55:34;;;;;;;11.40;5.00;;;;;;;9.43;64.95;100028.77;213348;1275;141778;-64
2022/05/14 22:00:38;;;;;;;6.60;4.30;;;;;;;9.42;64.75;100028.69;214467;1274;140940;-62
2022/05/14 22:05:42;;;;;;;10.30;5.20;;;;;;;9.42;65.08;100027.47;213741;1274;142875;-63
2022/05/14 22:10:46;;;;;;;8.10;4.80;;;;;;;9.38;65.23;100030.58;213939;1274;141739;-62
2022/05/14 22:15:50;;;;;;;14.50;4.80;;;;;;;9.38;65.39;100028.20;214314;1274;143213;-62
2022/05/14 22:20:53;;;;;;;9.10;5.80;;;;;;;9.40;65.81;100023.96;213213;1275;142686;-65
2022/05/14 22:25:56;;;;;;;9.20;5.30;;;;;;;9.39;65.56;100025.08;213224;1274;141973;-63
2022/05/14 22:30:59;;;;;;;10.60;5.10;;;;;;;9.37;65.93;100024.48;213485;1274;141601;-62
2022/05/14 22:36:06;;;;;;;14.90;6.50;;;;;;;9.35;66.06;100027.52;213951;1274;143049;-62
2022/05/14 22:41:11;;;;;;;14.70;5.80;;;;;;;9.36;66.01;100029.32;213700;1274;141771;-63
2022/05/14 22:46:14;;;;;;;10.90;6.70;;;;;;;9.31;66.19;100034.40;213897;1276;140087;-63
2022/05/14 22:51:18;;;;;;;9.40;5.60;;;;;;;9.23;66.44;100039.41;214222;1274;141587;-62
2022/05/14 22:56:23;;;;;;;9.80;5.70;;;;;;;9.20;66.51;100040.75;214535;1274;141032;-63
2022/05/14 23:01:25;;;;;;;15.10;6.70;;;;;;;9.17;66.46;100041.48;214385;1274;142831;-64
2022/05/14 23:06:27;;;;;;;10.20;6.50;;;;;;;9.14;66.68;100042.50;215327;1274;140216;-65
2022/05/14 23:11:29;;;;;;;8.00;6.70;;;;;;;9.14;66.88;100038.25;214609;1274;141140;-64
2022/05/14 23:16:32;;;;;;;11.30;6.40;;;;;;;9.13;66.70;100042.15;216105;1274;139899;-64
2022/05/14 23:21:35;;;;;;;8.60;6.70;;;;;;;9.07;66.87;100044.40;215690;1274;141135;-64
2022/05/14 23:26:39;;;;;;;10.10;6.50;;;;;;;9.02;67.30;100046.44;216134;1274;140256;-65
2022/05/14 23:31:42;;;;;;;9.30;6.40;;;;;;;9.03;67.19;100051.98;215872;1274;140673;-65
2022/05/14 23:36:45;;;;;;;11.30;6.50;;;;;;;8.97;66.76;100052.36;215829;1274;140718;-64
2022/05/14 23:41:47;;;;;;;7.40;5.90;;;;;;;8.85;66.84;100053.11;215145;1276;140543;-62
2022/05/14 23:46:53;;;;;;;7.90;6.60;;;;;;;8.73;67.24;100049.88;214930;1274;139983;-66
2022/05/14 23:51:57;;;;;;;10.60;5.90;;;;;;;8.57;66.91;100053.70;213438;1274;139839;-63
2022/05/14 23:57:00;;;;;;;7.60;5.20;;;;;;;8.34;66.92;100062.16;215349;1274;139753;-65
